PWSweather.com
Personal Weather Stations
Station Observations
OFENA
OfenaIT

OfenaIT

Lat: 42.328, Lon: 13.761

Elevation: 500

Station Type: PCE-FW20

High Low Average
Temperature 97.2°F36.2°C 68.2°F20.1°C 85.5°F29.7°C
Dew Point 38.5°F3.6°C 18.2°F-7.7°C 29.8°F-1.2°C
Winds 11.4 mph 18.3 kmh 0.7 mph 1.1 kmh 5.0 mph S8.0 kmh S
Wind Gusts 22.8 mph36.7 kmh 2.2 mph3.5 kmh 13.0 mph20.9 kmh
Humidity 16% 11% 13%
Pressure 29.75 in1007.5 mb 29.68 in1005.1 mb -
Precipitation 0.00 in0.0 mm - -
Hour Temp Dew Point Humidity Winds Wind Gusts Pressure Precip Precip Rate Daily Precip Total
12:00 AM 82.9°F28.3°C 30.6°F-0.8°C 15% 3.1 mph N5.0 kmh N 10.7 mph17.2 kmh 29.70 in1005.8 mb 0.00 in0.0 mm 0.00 in0.0 mm 0.00 in0.0 mm
07:05 AM 74.7°F23.7°C 25.5°F-3.6°C 16% 5.4 mph N8.7 kmh N 8.3 mph13.4 kmh 29.69 in1005.4 mb 0.00 in0.0 mm 0.00 in0.0 mm 0.00 in0.0 mm
07:10 AM 75.4°F24.1°C 24.6°F-4.1°C 15% 3.1 mph NE5.0 kmh NE 7.6 mph12.2 kmh 29.69 in1005.4 mb 0.00 in0.0 mm 0.00 in0.0 mm 0.00 in0.0 mm
07:20 AM 76.8°F24.9°C 25.7°F-3.5°C 15% 3.8 mph E6.1 kmh E 8.3 mph13.4 kmh 29.70 in1005.8 mb 0.00 in0.0 mm 0.00 in0.0 mm 0.00 in0.0 mm
07:30 AM 77.4°F25.2°C 24.5°F-4.2°C 14% 3.8 mph ESE6.1 kmh ESE 12.1 mph19.5 kmh 29.70 in1005.8 mb 0.00 in0.0 mm 0.00 in0.0 mm 0.00 in0.0 mm
07:40 AM 81.3°F27.4°C 23.9°F-4.5°C 12% 5.4 mph SSE8.7 kmh SSE 9.8 mph15.8 kmh 29.69 in1005.4 mb 0.00 in0.0 mm 0.00 in0.0 mm 0.00 in0.0 mm
07:50 AM 83.3°F28.5°C 30.9°F-0.6°C 15% 2.2 mph SSE3.5 kmh SSE 13.0 mph20.9 kmh 29.69 in1005.4 mb 0.00 in0.0 mm 0.00 in0.0 mm 0.00 in0.0 mm
08:00 AM 84.7°F29.3°C 30.3°F-0.9°C 14% 4.5 mph SE7.2 kmh SE 10.7 mph17.2 kmh 29.69 in1005.4 mb 0.00 in0.0 mm 0.00 in0.0 mm 0.00 in0.0 mm
08:10 AM 85.1°F29.5°C 30.6°F-0.8°C 14% 3.1 mph S5.0 kmh S 13.0 mph20.9 kmh 29.70 in1005.8 mb 0.00 in0.0 mm 0.00 in0.0 mm 0.00 in0.0 mm
08:20 AM 86.2°F30.1°C 29.6°F-1.3°C 13% 5.4 mph S8.7 kmh S 11.4 mph18.3 kmh 29.69 in1005.4 mb 0.00 in0.0 mm 0.00 in0.0 mm 0.00 in0.0 mm
08:30 AM 86.5°F30.3°C 29.9°F-1.2°C 13% 3.1 mph SE5.0 kmh SE 10.7 mph17.2 kmh 29.69 in1005.4 mb 0.00 in0.0 mm 0.00 in0.0 mm 0.00 in0.0 mm
08:40 AM 87.3°F30.7°C 30.5°F-0.8°C 13% 5.4 mph SSE8.7 kmh SSE 9.8 mph15.8 kmh 29.69 in1005.4 mb 0.00 in0.0 mm 0.00 in0.0 mm 0.00 in0.0 mm
08:50 AM 88.5°F31.4°C 29.5°F-1.4°C 12% 0.7 mph S1.1 kmh S 12.1 mph19.5 kmh 29.69 in1005.4 mb 0.00 in0.0 mm 0.00 in0.0 mm 0.00 in0.0 mm
09:00 AM 88.3°F31.3°C 29.4°F-1.4°C 12% 7.6 mph S12.2 kmh S 13.6 mph21.9 kmh 29.69 in1005.4 mb 0.00 in0.0 mm 0.00 in0.0 mm 0.00 in0.0 mm
09:10 AM 87.6°F30.9°C 30.8°F-0.7°C 13% 4.5 mph S7.2 kmh S 15.9 mph25.6 kmh 29.70 in1005.8 mb 0.00 in0.0 mm 0.00 in0.0 mm 0.00 in0.0 mm
09:20 AM 87.6°F30.9°C 30.8°F-0.7°C 13% 7.6 mph SSE12.2 kmh SSE 15.9 mph25.6 kmh 29.70 in1005.8 mb 0.00 in0.0 mm 0.00 in0.0 mm 0.00 in0.0 mm
09:30 AM 88.0°F31.1°C 29.1°F-1.6°C 12% 3.8 mph S6.1 kmh S 16.8 mph27.0 kmh 29.70 in1005.8 mb 0.00 in0.0 mm 0.00 in0.0 mm 0.00 in0.0 mm
09:40 AM 89.2°F31.8°C 30.1°F-1.1°C 12% 6.9 mph SSE11.1 kmh SSE 14.5 mph23.3 kmh 29.69 in1005.4 mb 0.00 in0.0 mm 0.00 in0.0 mm 0.00 in0.0 mm
09:50 AM 89.4°F31.9°C 30.2°F-1.0°C 12% 7.6 mph S12.2 kmh S 17.4 mph28.0 kmh 29.70 in1005.8 mb 0.00 in0.0 mm 0.00 in0.0 mm 0.00 in0.0 mm
10:00 AM 89.1°F31.7°C 29.9°F-1.2°C 12% 5.4 mph S8.7 kmh S 14.5 mph23.3 kmh 29.70 in1005.8 mb 0.00 in0.0 mm 0.00 in0.0 mm 0.00 in0.0 mm
10:10 AM 89.2°F31.8°C 30.1°F-1.1°C 12% 6.9 mph SSE11.1 kmh SSE 18.3 mph29.5 kmh 29.70 in1005.8 mb 0.00 in0.0 mm 0.00 in0.0 mm 0.00 in0.0 mm
10:20 AM 89.4°F31.9°C 30.2°F-1.0°C 12% 7.6 mph SE12.2 kmh SE 16.8 mph27.0 kmh 29.70 in1005.8 mb 0.00 in0.0 mm 0.00 in0.0 mm 0.00 in0.0 mm
10:30 AM 89.6°F32.0°C 28.2°F-2.1°C 11% 6.0 mph SSW9.7 kmh SSW 15.2 mph24.5 kmh 29.70 in1005.8 mb 0.00 in0.0 mm 0.00 in0.0 mm 0.00 in0.0 mm
10:40 AM 90.7°F32.6°C 29.0°F-1.7°C 11% 6.9 mph S11.1 kmh S 15.2 mph24.5 kmh 29.69 in1005.4 mb 0.00 in0.0 mm 0.00 in0.0 mm 0.00 in0.0 mm
10:50 AM 90.9°F32.7°C 29.2°F-1.6°C 11% 9.2 mph ESE14.8 kmh ESE 19.7 mph31.7 kmh 29.69 in1005.4 mb 0.00 in0.0 mm 0.00 in0.0 mm 0.00 in0.0 mm
11:00 AM 91.9°F33.3°C 37.7°F3.2°C 15% 5.4 mph S8.7 kmh S 17.4 mph28.0 kmh 29.70 in1005.8 mb 0.00 in0.0 mm 0.00 in0.0 mm 0.00 in0.0 mm
11:10 AM 91.8°F33.2°C 37.6°F3.1°C 15% 7.6 mph SSE12.2 kmh SSE 14.5 mph23.3 kmh 29.70 in1005.8 mb 0.00 in0.0 mm 0.00 in0.0 mm 0.00 in0.0 mm
11:20 AM 92.8°F33.8°C 38.5°F3.6°C 15% 3.8 mph S6.1 kmh S 19.7 mph31.7 kmh 29.70 in1005.8 mb 0.00 in0.0 mm 0.00 in0.0 mm 0.00 in0.0 mm
11:30 AM 93.9°F34.4°C 37.6°F3.1°C 14% 4.5 mph WSW7.2 kmh WSW 22.8 mph36.7 kmh 29.70 in1005.8 mb 0.00 in0.0 mm 0.00 in0.0 mm 0.00 in0.0 mm
11:40 AM 93.4°F34.1°C 37.1°F2.8°C 14% 2.2 mph NW3.5 kmh NW 16.8 mph27.0 kmh 29.70 in1005.8 mb 0.00 in0.0 mm 0.00 in0.0 mm 0.00 in0.0 mm
11:50 AM 93.9°F34.4°C 37.6°F3.1°C 14% 3.8 mph NW6.1 kmh NW 14.5 mph23.3 kmh 29.71 in1006.1 mb 0.00 in0.0 mm 0.00 in0.0 mm 0.00 in0.0 mm
12:00 PM 95.2°F35.1°C 36.7°F2.6°C 13% 4.5 mph NW7.2 kmh NW 9.8 mph15.8 kmh 29.70 in1005.8 mb 0.00 in0.0 mm 0.00 in0.0 mm 0.00 in0.0 mm
12:10 PM 93.4°F34.1°C 37.1°F2.8°C 14% 6.9 mph WNW11.1 kmh WNW 13.6 mph21.9 kmh 29.70 in1005.8 mb 0.00 in0.0 mm 0.00 in0.0 mm 0.00 in0.0 mm
12:20 PM 95.0°F35.0°C 36.5°F2.5°C 13% 11.4 mph NNW18.3 kmh NNW 15.2 mph24.5 kmh 29.70 in1005.8 mb 0.00 in0.0 mm 0.00 in0.0 mm 0.00 in0.0 mm
12:30 PM 95.4°F35.2°C 36.8°F2.7°C 13% 3.8 mph WNW6.1 kmh WNW 15.2 mph24.5 kmh 29.70 in1005.8 mb 0.00 in0.0 mm 0.00 in0.0 mm 0.00 in0.0 mm
12:40 PM 95.7°F35.4°C 37.1°F2.8°C 13% 2.2 mph NW3.5 kmh NW 15.2 mph24.5 kmh 29.70 in1005.8 mb 0.00 in0.0 mm 0.00 in0.0 mm 0.00 in0.0 mm
12:50 PM 97.0°F36.1°C 36.0°F2.2°C 12% 7.6 mph SW12.2 kmh SW 10.7 mph17.2 kmh 29.70 in1005.8 mb 0.00 in0.0 mm 0.00 in0.0 mm 0.00 in0.0 mm
01:00 PM 97.0°F36.1°C 36.0°F2.2°C 12% 6.0 mph SW9.7 kmh SW 19.7 mph31.7 kmh 29.70 in1005.8 mb 0.00 in0.0 mm 0.00 in0.0 mm 0.00 in0.0 mm
01:10 PM 95.4°F35.2°C 36.8°F2.7°C 13% 4.5 mph NNE7.2 kmh NNE 13.6 mph21.9 kmh 29.70 in1005.8 mb 0.00 in0.0 mm 0.00 in0.0 mm 0.00 in0.0 mm
01:20 PM 95.7°F35.4°C 37.1°F2.8°C 13% 9.2 mph SE14.8 kmh SE 11.4 mph18.3 kmh 29.70 in1005.8 mb 0.00 in0.0 mm 0.00 in0.0 mm 0.00 in0.0 mm
01:30 PM 96.1°F35.6°C 37.4°F3.0°C 13% 1.6 mph E2.6 kmh E 11.4 mph18.3 kmh 29.70 in1005.8 mb 0.00 in0.0 mm 0.00 in0.0 mm 0.00 in0.0 mm
01:40 PM 94.6°F34.8°C 38.1°F3.4°C 14% 6.9 mph SE11.1 kmh SE 17.4 mph28.0 kmh 29.70 in1005.8 mb 0.00 in0.0 mm 0.00 in0.0 mm 0.00 in0.0 mm
01:50 PM 96.1°F35.6°C 37.4°F3.0°C 13% 6.9 mph SW11.1 kmh SW 13.0 mph20.9 kmh 29.70 in1005.8 mb 0.00 in0.0 mm 0.00 in0.0 mm 0.00 in0.0 mm
02:00 PM 95.9°F35.5°C 37.2°F2.9°C 13% 4.5 mph SSE7.2 kmh SSE 13.6 mph21.9 kmh 29.70 in1005.8 mb 0.00 in0.0 mm 0.00 in0.0 mm 0.00 in0.0 mm
02:10 PM 94.6°F34.8°C 38.1°F3.4°C 14% 10.7 mph SSE17.2 kmh SSE 15.2 mph24.5 kmh 29.70 in1005.8 mb 0.00 in0.0 mm 0.00 in0.0 mm 0.00 in0.0 mm
02:20 PM 94.1°F34.5°C 37.7°F3.2°C 14% 4.5 mph S7.2 kmh S 13.0 mph20.9 kmh 29.70 in1005.8 mb 0.00 in0.0 mm 0.00 in0.0 mm 0.00 in0.0 mm
02:30 PM 97.2°F36.2°C 36.2°F2.3°C 12% 3.1 mph WNW5.0 kmh WNW 9.8 mph15.8 kmh 29.70 in1005.8 mb 0.00 in0.0 mm 0.00 in0.0 mm 0.00 in0.0 mm
02:40 PM 95.9°F35.5°C 37.2°F2.9°C 13% 3.8 mph NW6.1 kmh NW 11.4 mph18.3 kmh 29.69 in1005.4 mb 0.00 in0.0 mm 0.00 in0.0 mm 0.00 in0.0 mm
02:50 PM 93.7°F34.3°C 37.4°F3.0°C 14% 5.4 mph NW8.7 kmh NW 16.8 mph27.0 kmh 29.70 in1005.8 mb 0.00 in0.0 mm 0.00 in0.0 mm 0.00 in0.0 mm
03:00 PM 95.5°F35.3°C 36.9°F2.7°C 13% 11.4 mph SE18.3 kmh SE 13.6 mph21.9 kmh 29.70 in1005.8 mb 0.00 in0.0 mm 0.00 in0.0 mm 0.00 in0.0 mm
03:10 PM 94.5°F34.7°C 38.0°F3.3°C 14% 2.2 mph E3.5 kmh E 13.6 mph21.9 kmh 29.69 in1005.4 mb 0.00 in0.0 mm 0.00 in0.0 mm 0.00 in0.0 mm
03:20 PM 95.2°F35.1°C 36.7°F2.6°C 13% 8.3 mph NW13.4 kmh NW 13.6 mph21.9 kmh 29.70 in1005.8 mb 0.00 in0.0 mm 0.00 in0.0 mm 0.00 in0.0 mm
03:30 PM 93.6°F34.2°C 37.3°F2.9°C 14% 5.4 mph SE8.7 kmh SE 15.9 mph25.6 kmh 29.70 in1005.8 mb 0.00 in0.0 mm 0.00 in0.0 mm 0.00 in0.0 mm
03:40 PM 93.9°F34.4°C 37.6°F3.1°C 14% 4.5 mph SE7.2 kmh SE 13.6 mph21.9 kmh 29.69 in1005.4 mb 0.00 in0.0 mm 0.00 in0.0 mm 0.00 in0.0 mm
03:50 PM 94.1°F34.5°C 37.7°F3.2°C 14% 2.2 mph SSW3.5 kmh SSW 12.1 mph19.5 kmh 29.69 in1005.4 mb 0.00 in0.0 mm 0.00 in0.0 mm 0.00 in0.0 mm
04:00 PM 94.5°F34.7°C 38.0°F3.3°C 14% 4.5 mph S7.2 kmh S 9.8 mph15.8 kmh 29.69 in1005.4 mb 0.00 in0.0 mm 0.00 in0.0 mm 0.00 in0.0 mm
04:10 PM 94.5°F34.7°C 38.0°F3.3°C 14% 3.1 mph N5.0 kmh N 9.8 mph15.8 kmh 29.69 in1005.4 mb 0.00 in0.0 mm 0.00 in0.0 mm 0.00 in0.0 mm
04:20 PM 94.5°F34.7°C 38.0°F3.3°C 14% 9.2 mph NW14.8 kmh NW 13.6 mph21.9 kmh 29.69 in1005.4 mb 0.00 in0.0 mm 0.00 in0.0 mm 0.00 in0.0 mm
04:30 PM 91.4°F33.0°C 37.3°F2.9°C 15% 6.9 mph S11.1 kmh S 20.6 mph33.2 kmh 29.68 in1005.1 mb 0.00 in0.0 mm 0.00 in0.0 mm 0.00 in0.0 mm
04:40 PM 91.6°F33.1°C 37.5°F3.1°C 15% 3.1 mph S5.0 kmh S 13.6 mph21.9 kmh 29.68 in1005.1 mb 0.00 in0.0 mm 0.00 in0.0 mm 0.00 in0.0 mm
04:50 PM 91.2°F32.9°C 29.4°F-1.4°C 11% 5.4 mph ENE8.7 kmh ENE 13.6 mph21.9 kmh 29.68 in1005.1 mb 0.00 in0.0 mm 0.00 in0.0 mm 0.00 in0.0 mm
05:00 PM 91.0°F32.8°C 29.3°F-1.5°C 11% 4.5 mph S7.2 kmh S 9.2 mph14.8 kmh 29.68 in1005.1 mb 0.00 in0.0 mm 0.00 in0.0 mm 0.00 in0.0 mm
05:10 PM 91.0°F32.8°C 29.3°F-1.5°C 11% 6.9 mph NE11.1 kmh NE 9.8 mph15.8 kmh 29.68 in1005.1 mb 0.00 in0.0 mm 0.00 in0.0 mm 0.00 in0.0 mm
05:20 PM 90.7°F32.6°C 29.0°F-1.7°C 11% 3.1 mph S5.0 kmh S 9.2 mph14.8 kmh 29.68 in1005.1 mb 0.00 in0.0 mm 0.00 in0.0 mm 0.00 in0.0 mm
05:30 PM 89.2°F31.8°C 30.1°F-1.1°C 12% 4.5 mph SSW7.2 kmh SSW 13.6 mph21.9 kmh 29.68 in1005.1 mb 0.00 in0.0 mm 0.00 in0.0 mm 0.00 in0.0 mm
05:40 PM 89.4°F31.9°C 30.2°F-1.0°C 12% 3.1 mph S5.0 kmh S 7.6 mph12.2 kmh 29.68 in1005.1 mb 0.00 in0.0 mm 0.00 in0.0 mm 0.00 in0.0 mm
05:50 PM 90.1°F32.3°C 28.6°F-1.9°C 11% 1.6 mph S2.6 kmh S 6.0 mph9.7 kmh 29.68 in1005.1 mb 0.00 in0.0 mm 0.00 in0.0 mm 0.00 in0.0 mm
06:00 PM 88.7°F31.5°C 29.6°F-1.3°C 12% 2.2 mph SW3.5 kmh SW 9.2 mph14.8 kmh 29.68 in1005.1 mb 0.00 in0.0 mm 0.00 in0.0 mm 0.00 in0.0 mm
06:10 PM 84.2°F29.0°C 29.9°F-1.2°C 14% 4.5 mph NW7.2 kmh NW 13.0 mph20.9 kmh 29.69 in1005.4 mb 0.00 in0.0 mm 0.00 in0.0 mm 0.00 in0.0 mm
06:20 PM 81.3°F27.4°C 23.9°F-4.5°C 12% 4.5 mph NW7.2 kmh NW 13.0 mph20.9 kmh 29.69 in1005.4 mb 0.00 in0.0 mm 0.00 in0.0 mm 0.00 in0.0 mm
06:30 PM 79.9°F26.6°C 24.7°F-4.1°C 13% 6.9 mph NNW11.1 kmh NNW 16.8 mph27.0 kmh 29.70 in1005.8 mb 0.00 in0.0 mm 0.00 in0.0 mm 0.00 in0.0 mm
06:40 PM 78.8°F26.0°C 23.9°F-4.5°C 13% 6.9 mph NW11.1 kmh NW 18.3 mph29.5 kmh 29.70 in1005.8 mb 0.00 in0.0 mm 0.00 in0.0 mm 0.00 in0.0 mm
06:50 PM 77.9°F25.5°C 24.9°F-3.9°C 14% 5.4 mph NW8.7 kmh NW 12.1 mph19.5 kmh 29.71 in1006.1 mb 0.00 in0.0 mm 0.00 in0.0 mm 0.00 in0.0 mm
07:00 PM 77.4°F25.2°C 24.5°F-4.2°C 14% 2.2 mph N3.5 kmh N 14.5 mph23.3 kmh 29.71 in1006.1 mb 0.00 in0.0 mm 0.00 in0.0 mm 0.00 in0.0 mm
07:10 PM 76.6°F24.8°C 25.6°F-3.6°C 15% 5.4 mph N8.7 kmh N 10.7 mph17.2 kmh 29.71 in1006.1 mb 0.00 in0.0 mm 0.00 in0.0 mm 0.00 in0.0 mm
07:20 PM 75.9°F24.4°C 25.0°F-3.9°C 15% 9.8 mph NE15.8 kmh NE 13.6 mph21.9 kmh 29.71 in1006.1 mb 0.00 in0.0 mm 0.00 in0.0 mm 0.00 in0.0 mm
07:30 PM 75.2°F24.0°C 24.4°F-4.2°C 15% 5.4 mph NNE8.7 kmh NNE 15.9 mph25.6 kmh 29.71 in1006.1 mb 0.00 in0.0 mm 0.00 in0.0 mm 0.00 in0.0 mm
07:40 PM 74.5°F23.6°C 25.4°F-3.7°C 16% 5.4 mph N8.7 kmh N 14.5 mph23.3 kmh 29.72 in1006.4 mb 0.00 in0.0 mm 0.00 in0.0 mm 0.00 in0.0 mm
07:50 PM 73.9°F23.3°C 25.0°F-3.9°C 16% 4.5 mph N7.2 kmh N 11.4 mph18.3 kmh 29.72 in1006.4 mb 0.00 in0.0 mm 0.00 in0.0 mm 0.00 in0.0 mm
08:00 PM 73.8°F23.2°C 24.8°F-4.0°C 16% 2.2 mph N3.5 kmh N 10.7 mph17.2 kmh 29.73 in1006.8 mb 0.00 in0.0 mm 0.00 in0.0 mm 0.00 in0.0 mm
08:10 PM 73.2°F22.9°C 19.5°F-6.9°C 13% 5.4 mph NNE8.7 kmh NNE 13.0 mph20.9 kmh 29.73 in1006.8 mb 0.00 in0.0 mm 0.00 in0.0 mm 0.00 in0.0 mm
08:20 PM 72.9°F22.7°C 19.2°F-7.1°C 13% 6.9 mph NNE11.1 kmh NNE 15.9 mph25.6 kmh 29.73 in1006.8 mb 0.00 in0.0 mm 0.00 in0.0 mm 0.00 in0.0 mm
08:30 PM 72.5°F22.5°C 18.9°F-7.3°C 13% 6.0 mph N9.7 kmh N 11.4 mph18.3 kmh 29.73 in1006.8 mb 0.00 in0.0 mm 0.00 in0.0 mm 0.00 in0.0 mm
08:40 PM 72.1°F22.3°C 18.6°F-7.4°C 13% 7.6 mph NNE12.2 kmh NNE 11.4 mph18.3 kmh 29.73 in1006.8 mb 0.00 in0.0 mm 0.00 in0.0 mm 0.00 in0.0 mm
08:50 PM 71.6°F22.0°C 18.2°F-7.7°C 13% 5.4 mph NNE8.7 kmh NNE 13.0 mph20.9 kmh 29.73 in1006.8 mb 0.00 in0.0 mm 0.00 in0.0 mm 0.00 in0.0 mm
09:00 PM 71.2°F21.8°C 19.6°F-6.9°C 14% 3.1 mph NE5.0 kmh NE 13.6 mph21.9 kmh 29.73 in1006.8 mb 0.00 in0.0 mm 0.00 in0.0 mm 0.00 in0.0 mm
09:10 PM 71.1°F21.7°C 19.5°F-6.9°C 14% 1.6 mph NW2.6 kmh NW 5.4 mph8.7 kmh 29.74 in1007.1 mb 0.00 in0.0 mm 0.00 in0.0 mm 0.00 in0.0 mm
09:20 PM 70.9°F21.6°C 19.4°F-7.0°C 14% 6.9 mph N11.1 kmh N 12.1 mph19.5 kmh 29.74 in1007.1 mb 0.00 in0.0 mm 0.00 in0.0 mm 0.00 in0.0 mm
09:30 PM 71.1°F21.7°C 19.5°F-6.9°C 14% 3.1 mph NNW5.0 kmh NNW 9.2 mph14.8 kmh 29.74 in1007.1 mb 0.00 in0.0 mm 0.00 in0.0 mm 0.00 in0.0 mm
09:40 PM 71.1°F21.7°C 19.5°F-6.9°C 14% 3.1 mph N5.0 kmh N 7.6 mph12.2 kmh 29.74 in1007.1 mb 0.00 in0.0 mm 0.00 in0.0 mm 0.00 in0.0 mm
09:50 PM 70.3°F21.3°C 18.9°F-7.3°C 14% 4.5 mph N7.2 kmh N 6.9 mph11.1 kmh 29.74 in1007.1 mb 0.00 in0.0 mm 0.00 in0.0 mm 0.00 in0.0 mm
10:00 PM 69.8°F21.0°C 18.5°F-7.5°C 14% 4.5 mph NNE7.2 kmh NNE 7.6 mph12.2 kmh 29.74 in1007.1 mb 0.00 in0.0 mm 0.00 in0.0 mm 0.00 in0.0 mm
10:10 PM 69.3°F20.7°C 19.7°F-6.8°C 15% 5.4 mph NNE8.7 kmh NNE 17.4 mph28.0 kmh 29.74 in1007.1 mb 0.00 in0.0 mm 0.00 in0.0 mm 0.00 in0.0 mm
10:20 PM 69.1°F20.6°C 19.5°F-6.9°C 15% 6.9 mph N11.1 kmh N 10.7 mph17.2 kmh 29.75 in1007.5 mb 0.00 in0.0 mm 0.00 in0.0 mm 0.00 in0.0 mm
10:30 PM 68.5°F20.3°C 19.1°F-7.2°C 15% 6.9 mph NNE11.1 kmh NNE 12.1 mph19.5 kmh 29.74 in1007.1 mb 0.00 in0.0 mm 0.00 in0.0 mm 0.00 in0.0 mm
10:40 PM 68.5°F20.3°C 19.1°F-7.2°C 15% 5.4 mph NNE8.7 kmh NNE 14.5 mph23.3 kmh 29.75 in1007.5 mb 0.00 in0.0 mm 0.00 in0.0 mm 0.00 in0.0 mm
10:50 PM 68.2°F20.1°C 18.8°F-7.3°C 15% 2.2 mph NNE3.5 kmh NNE 10.7 mph17.2 kmh 29.75 in1007.5 mb 0.00 in0.0 mm 0.00 in0.0 mm 0.00 in0.0 mm